Time,TemperatureF,DewpointF,PressureIn,WindDirection,WindDirectionDegrees,WindSpeedMPH,WindSpeedGustMPH,Humidity,HourlyPrecipIn,Conditions,Clouds,dailyrainin,SoftwareType,DateUTC
2013-02-12 00:00:00,35.8,32.0,30.12,WSW,248,2.0,4.0,86,0.00,,,0.00,WUHU216HW,2013-02-12 07:00:00,
2013-02-12 00:05:00,35.8,32.2,30.12,WSW,248,2.2,4.0,87,0.00,,,0.00,WUHU216HW,2013-02-12 07:05:00,
2013-02-12 00:10:00,35.8,32.2,30.12,WSW,248,1.1,2.5,87,0.00,,,0.00,WUHU216HW,2013-02-12 07:10:00,
2013-02-12 00:15:00,35.8,32.2,30.12,SSW,203,0.9,2.5,87,0.00,,,0.00,WUHU216HW,2013-02-12 07:15:00,
2013-02-12 00:20:00,35.8,32.2,30.12,East,90,0.9,1.1,87,0.00,,,0.00,WUHU216HW,2013-02-12 07:20:00,
2013-02-12 00:25:00,35.8,32.2,30.11,East,90,2.2,2.2,87,0.00,,,0.00,WUHU216HW,2013-02-12 07:25:00,
2013-02-12 00:30:00,35.8,32.2,30.11,ESE,113,1.8,2.5,87,0.00,,,0.00,WUHU216HW,2013-02-12 07:30:00,
2013-02-12 00:35:00,36.0,32.4,30.11,East,90,1.6,3.1,87,0.00,,,0.00,WUHU216HW,2013-02-12 07:35:00,
2013-02-12 00:40:00,36.0,32.4,30.11,ESE,113,2.5,3.1,87,0.00,,,0.00,WUHU216HW,2013-02-12 07:40:00,
2013-02-12 00:45:00,36.0,32.4,30.11,ESE,113,1.1,3.4,87,0.00,,,0.00,WUHU216HW,2013-02-12 07:45:00,
2013-02-12 00:50:00,36.0,32.4,30.11,ESE,113,2.5,3.4,87,0.00,,,0.00,WUHU216HW,2013-02-12 07:50:00,
2013-02-12 00:55:00,36.0,32.4,30.11,SE,135,1.8,2.7,87,0.00,,,0.00,WUHU216HW,2013-02-12 07:55:00,
2013-02-12 01:00:00,35.6,31.8,30.10,SSE,158,1.8,2.7,86,0.00,,,0.00,WUHU216HW,2013-02-12 08:00:00,
2013-02-12 01:05:00,35.6,31.5,30.11,SE,135,1.3,2.5,85,0.00,,,0.00,WUHU216HW,2013-02-12 08:05:00,
2013-02-12 01:10:00,35.3,31.4,30.11,SE,135,2.2,2.5,86,0.00,,,0.00,WUHU216HW,2013-02-12 08:10:00,
2013-02-12 01:15:00,35.3,31.4,30.11,East,90,2.2,3.6,86,0.00,,,0.00,WUHU216HW,2013-02-12 08:15:00,
2013-02-12 01:20:00,35.5,31.6,30.11,SE,135,1.1,3.6,86,0.00,,,0.00,WUHU216HW,2013-02-12 08:20:00,
2013-02-12 01:25:00,35.5,31.6,30.11,ESE,113,2.0,3.6,86,0.00,,,0.00,WUHU216HW,2013-02-12 08:25:00,
2013-02-12 01:30:00,35.5,31.6,30.12,SE,135,2.2,3.4,86,0.00,,,0.00,WUHU216HW,2013-02-12 08:30:00,
2013-02-12 01:35:00,35.6,31.8,30.12,East,90,3.6,4.3,86,0.00,,,0.00,WUHU216HW,2013-02-12 08:35:00,
2013-02-12 01:40:00,35.6,31.8,30.12,SSE,158,0.4,4.3,86,0.00,,,0.00,WUHU216HW,2013-02-12 08:40:00,
2013-02-12 01:45:00,35.6,31.8,30.12,SE,135,0.2,3.6,86,0.00,,,0.00,WUHU216HW,2013-02-12 08:45:00,
2013-02-12 01:50:00,35.6,31.8,30.12,SSW,203,1.3,1.8,86,0.00,,,0.00,WUHU216HW,2013-02-12 08:50:00,
2013-02-12 01:55:00,35.6,31.8,30.12,WSW,248,2.5,2.5,86,0.00,,,0.00,WUHU216HW,2013-02-12 08:55:00,
2013-02-12 02:00:00,35.6,31.8,30.13,SSW,203,2.9,3.4,86,0.00,,,0.00,WUHU216HW,2013-02-12 09:00:00,
2013-02-12 02:05:00,35.6,31.8,30.13,SE,135,0.0,3.4,86,0.00,,,0.00,WUHU216HW,2013-02-12 09:05:00,
2013-02-12 02:10:00,35.6,31.8,30.12,ESE,113,1.1,2.9,86,0.00,,,0.00,WUHU216HW,2013-02-12 09:10:00,
2013-02-12 02:15:00,35.5,31.6,30.12,SE,135,3.1,3.8,86,0.00,,,0.00,WUHU216HW,2013-02-12 09:15:00,
2013-02-12 02:20:00,35.3,31.4,30.11,SE,135,3.8,4.0,86,0.00,,,0.00,WUHU216HW,2013-02-12 09:20:00,
2013-02-12 02:25:00,34.9,31.1,30.11,ESE,113,2.2,4.0,86,0.00,,,0.00,WUHU216HW,2013-02-12 09:25:00,
2013-02-12 02:30:00,34.9,31.1,30.11,SSE,158,1.8,4.0,86,0.00,,,0.00,WUHU216HW,2013-02-12 09:30:00,
2013-02-12 02:35:00,34.6,30.7,30.11,SE,135,3.4,3.8,86,0.00,,,0.00,WUHU216HW,2013-02-12 09:35:00,
2013-02-12 02:40:00,34.4,30.5,30.10,ESE,113,2.5,5.4,86,0.00,,,0.00,WUHU216HW,2013-02-12 09:40:00,
2013-02-12 02:45:00,34.4,30.5,30.11,East,90,1.8,5.4,86,0.00,,,0.00,WUHU216HW,2013-02-12 09:45:00,
2013-02-12 02:50:00,34.4,30.5,30.10,ESE,113,4.7,4.7,86,0.00,,,0.00,WUHU216HW,2013-02-12 09:50:00,
2013-02-12 02:55:00,34.4,30.5,30.10,East,90,3.8,4.7,86,0.00,,,0.00,WUHU216HW,2013-02-12 09:55:00,
2013-02-12 03:00:00,34.2,30.3,30.11,East,90,2.0,4.7,86,0.00,,,0.00,WUHU216HW,2013-02-12 10:00:00,
2013-02-12 03:05:00,34.2,30.3,30.11,ESE,113,2.5,4.7,86,0.00,,,0.00,WUHU216HW,2013-02-12 10:05:00,
2013-02-12 03:10:00,34.0,30.2,30.11,ESE,113,2.2,4.3,86,0.00,,,0.00,WUHU216HW,2013-02-12 10:10:00,
2013-02-12 03:15:00,33.8,30.2,30.11,East,90,1.8,4.3,87,0.00,,,0.00,WUHU216HW,2013-02-12 10:15:00,
2013-02-12 03:20:00,33.7,30.2,30.11,SE,135,4.0,4.0,87,0.00,,,0.00,WUHU216HW,2013-02-12 10:20:00,
2013-02-12 03:25:00,33.5,30.0,30.12,ESE,113,2.5,4.0,87,0.00,,,0.00,WUHU216HW,2013-02-12 10:25:00,
2013-02-12 03:30:00,33.5,30.0,30.12,East,90,2.5,4.0,87,0.00,,,0.00,WUHU216HW,2013-02-12 10:30:00,
2013-02-12 03:35:00,33.5,30.0,30.12,ESE,113,4.5,4.5,87,0.00,,,0.00,WUHU216HW,2013-02-12 10:35:00,
2013-02-12 03:40:00,33.5,30.0,30.12,ESE,113,3.4,4.5,87,0.00,,,0.00,WUHU216HW,2013-02-12 10:40:00,
2013-02-12 03:45:00,33.5,30.0,30.12,East,90,3.4,4.5,87,0.00,,,0.00,WUHU216HW,2013-02-12 10:45:00,
2013-02-12 03:50:00,33.3,29.8,30.12,ESE,113,3.4,4.0,87,0.00,,,0.00,WUHU216HW,2013-02-12 10:50:00,
2013-02-12 03:55:00,33.3,29.8,30.11,East,90,2.7,4.7,87,0.00,,,0.00,WUHU216HW,2013-02-12 10:55:00,
2013-02-12 04:00:00,33.1,29.6,30.11,East,90,2.9,4.7,87,0.00,,,0.00,WUHU216HW,2013-02-12 11:00:00,
2013-02-12 04:05:00,33.1,29.9,30.11,ESE,113,2.9,4.7,88,0.00,,,0.00,WUHU216HW,2013-02-12 11:05:00,
2013-02-12 04:10:00,33.1,29.9,30.11,ESE,113,3.1,4.5,88,0.00,,,0.00,WUHU216HW,2013-02-12 11:10:00,
2013-02-12 04:15:00,33.1,29.9,30.11,ESE,113,1.8,3.6,88,0.00,,,0.00,WUHU216HW,2013-02-12 11:15:00,
2013-02-12 04:20:00,33.1,29.9,30.10,ESE,113,2.0,3.4,88,0.00,,,0.00,WUHU216HW,2013-02-12 11:20:00,
2013-02-12 04:25:00,32.9,29.8,30.10,ESE,113,1.3,3.6,88,0.00,,,0.00,WUHU216HW,2013-02-12 11:25:00,
2013-02-12 04:30:00,32.9,29.8,30.10,ESE,113,1.3,3.6,88,0.00,,,0.00,WUHU216HW,2013-02-12 11:30:00,
2013-02-12 04:35:00,32.9,29.8,30.10,ESE,113,2.0,3.4,88,0.00,,,0.00,WUHU216HW,2013-02-12 11:35:00,
2013-02-12 04:40:00,32.9,29.8,30.10,ESE,113,2.5,3.4,88,0.00,,,0.00,WUHU216HW,2013-02-12 11:40:00,
2013-02-12 04:45:00,32.9,29.8,30.10,ESE,113,1.8,3.6,88,0.00,,,0.00,WUHU216HW,2013-02-12 11:45:00,
2013-02-12 04:50:00,32.9,29.8,30.10,East,90,1.8,3.6,88,0.00,,,0.00,WUHU216HW,2013-02-12 11:50:00,
2013-02-12 04:55:00,32.9,29.8,30.11,ESE,113,2.0,3.1,88,0.00,,,0.00,WUHU216HW,2013-02-12 11:55:00,
2013-02-12 05:00:00,32.9,29.8,30.11,East,90,1.6,2.2,88,0.00,,,0.00,WUHU216HW,2013-02-12 12:00:00,
2013-02-12 05:05:00,33.1,29.9,30.11,East,90,1.1,2.0,88,0.00,,,0.00,WUHU216HW,2013-02-12 12:05:00,
2013-02-12 05:10:00,33.1,29.9,30.11,East,90,2.0,2.0,88,0.00,,,0.00,WUHU216HW,2013-02-12 12:10:00,
2013-02-12 05:15:00,32.9,29.8,30.12,East,90,1.1,2.0,88,0.00,,,0.00,WUHU216HW,2013-02-12 12:15:00,
2013-02-12 05:20:00,32.8,29.6,30.12,East,90,1.1,2.0,88,0.00,,,0.00,WUHU216HW,2013-02-12 12:20:00,
2013-02-12 05:25:00,32.8,29.6,30.12,ENE,68,1.1,2.0,88,0.00,,,0.00,WUHU216HW,2013-02-12 12:25:00,
2013-02-12 05:30:00,32.6,29.4,30.12,ENE,68,1.1,2.0,88,0.00,,,0.00,WUHU216HW,2013-02-12 12:30:00,
2013-02-12 05:35:00,32.6,29.4,30.12,East,90,0.9,1.8,88,0.00,,,0.00,WUHU216HW,2013-02-12 12:35:00,
2013-02-12 05:40:00,32.4,29.3,30.13,NE,45,0.9,1.1,88,0.00,,,0.00,WUHU216HW,2013-02-12 12:40:00,
2013-02-12 05:45:00,32.4,29.3,30.12,ENE,68,0.7,1.1,88,0.00,,,0.00,WUHU216HW,2013-02-12 12:45:00,
2013-02-12 05:50:00,32.2,29.1,30.13,ENE,68,1.1,1.6,88,0.00,,,0.00,WUHU216HW,2013-02-12 12:50:00,
2013-02-12 05:55:00,32.2,29.1,30.13,East,90,0.9,1.6,88,0.00,,,0.00,WUHU216HW,2013-02-12 12:55:00,
2013-02-12 06:00:00,32.0,29.0,30.12,ENE,68,1.1,1.3,88,0.00,,,0.00,WUHU216HW,2013-02-12 13:00:00,
2013-02-12 06:05:00,32.0,29.0,30.12,ENE,68,1.1,1.3,88,0.00,,,0.00,WUHU216HW,2013-02-12 13:05:00,
2013-02-12 06:10:00,31.9,28.8,30.12,ENE,68,1.1,1.1,88,0.00,,,0.00,WUHU216HW,2013-02-12 13:10:00,
2013-02-12 06:15:00,31.7,28.6,30.12,ENE,68,0.4,1.3,88,0.00,,,0.00,WUHU216HW,2013-02-12 13:15:00,
2013-02-12 06:20:00,31.7,28.6,30.12,East,90,0.7,1.3,88,0.00,,,0.00,WUHU216HW,2013-02-12 13:20:00,
2013-02-12 06:25:00,31.7,28.6,30.12,East,90,0.4,1.1,88,0.00,,,0.00,WUHU216HW,2013-02-12 13:25:00,
2013-02-12 06:30:00,31.7,28.6,30.12,East,90,1.1,1.1,88,0.00,,,0.00,WUHU216HW,2013-02-12 13:30:00,
2013-02-12 06:35:00,31.7,28.6,30.12,East,90,0.9,1.3,88,0.00,,,0.00,WUHU216HW,2013-02-12 13:35:00,
2013-02-12 06:40:00,31.7,28.6,30.12,ENE,68,1.1,1.8,88,0.00,,,0.00,WUHU216HW,2013-02-12 13:40:00,
2013-02-12 06:45:00,31.5,28.5,30.13,NE,45,1.6,1.8,88,0.00,,,0.00,WUHU216HW,2013-02-12 13:45:00,
2013-02-12 06:50:00,31.5,28.5,30.13,ENE,68,1.6,1.6,88,0.00,,,0.00,WUHU216HW,2013-02-12 13:50:00,
2013-02-12 06:55:00,31.5,28.5,30.13,ENE,68,1.1,1.6,88,0.00,,,0.00,WUHU216HW,2013-02-12 13:55:00,
2013-02-12 07:00:00,31.5,28.7,30.14,ENE,68,0.9,1.6,89,0.00,,,0.00,WUHU216HW,2013-02-12 14:00:00,
2013-02-12 07:05:00,31.5,28.7,30.14,East,90,0.4,1.3,89,0.00,,,0.00,WUHU216HW,2013-02-12 14:05:00,
2013-02-12 07:10:00,31.5,28.5,30.15,SSE,158,1.8,1.8,88,0.00,,,0.00,WUHU216HW,2013-02-12 14:10:00,
2013-02-12 07:15:00,31.5,28.5,30.16,SSE,158,2.5,2.5,88,0.00,,,0.00,WUHU216HW,2013-02-12 14:15:00,
2013-02-12 07:20:00,31.3,28.3,30.16,ESE,113,0.9,2.5,88,0.00,,,0.00,WUHU216HW,2013-02-12 14:20:00,
2013-02-12 07:25:00,31.5,28.5,30.16,East,90,0.7,2.5,88,0.00,,,0.00,WUHU216HW,2013-02-12 14:25:00,
2013-02-12 07:30:00,31.3,28.3,30.16,ESE,113,1.1,1.3,88,0.00,,,0.00,WUHU216HW,2013-02-12 14:30:00,
2013-02-12 07:35:00,31.3,28.3,30.16,ESE,113,1.1,1.8,88,0.00,,,0.00,WUHU216HW,2013-02-12 14:35:00,
2013-02-12 07:40:00,31.3,28.3,30.16,ESE,113,1.1,2.2,88,0.00,,,0.00,WUHU216HW,2013-02-12 14:40:00,
2013-02-12 07:45:00,31.3,28.3,30.16,SE,135,2.5,2.5,88,0.00,,,0.00,WUHU216HW,2013-02-12 14:45:00,
2013-02-12 07:50:00,31.3,28.5,30.16,East,90,1.8,2.7,89,0.00,,,0.00,WUHU216HW,2013-02-12 14:50:00,
2013-02-12 07:55:00,31.5,28.7,30.16,East,90,2.7,2.7,89,0.00,,,0.00,WUHU216HW,2013-02-12 14:55:00,
2013-02-12 08:00:00,31.7,28.9,30.16,ESE,113,1.8,2.9,89,0.00,,,0.00,WUHU216HW,2013-02-12 15:00:00,
2013-02-12 08:05:00,31.7,28.9,30.16,ESE,113,1.3,2.9,89,0.00,,,0.00,WUHU216HW,2013-02-12 15:05:00,
2013-02-12 08:10:00,32.0,29.3,30.16,SE,135,1.1,2.5,89,0.00,,,0.00,WUHU216HW,2013-02-12 15:10:00,
2013-02-12 08:15:00,32.2,29.4,30.16,ESE,113,0.9,2.9,89,0.00,,,0.00,WUHU216HW,2013-02-12 15:15:00,
2013-02-12 08:20:00,32.4,29.5,30.17,ESE,113,2.0,2.9,89,0.00,,,0.00,WUHU216HW,2013-02-12 15:20:00,
2013-02-12 08:25:00,32.6,29.7,30.17,East,90,0.4,2.7,89,0.00,,,0.00,WUHU216HW,2013-02-12 15:25:00,
2013-02-12 08:30:00,32.8,29.9,30.16,SE,135,3.1,3.1,89,0.00,,,0.00,WUHU216HW,2013-02-12 15:30:00,
2013-02-12 08:35:00,32.9,30.1,30.17,SE,135,2.9,3.1,89,0.00,,,0.00,WUHU216HW,2013-02-12 15:35:00,
2013-02-12 08:40:00,33.1,30.3,30.17,SE,135,2.5,3.4,89,0.00,,,0.00,WUHU216HW,2013-02-12 15:40:00,
2013-02-12 08:45:00,33.1,30.3,30.17,SE,135,2.5,3.4,89,0.00,,,0.00,WUHU216HW,2013-02-12 15:45:00,
2013-02-12 08:50:00,33.5,30.5,30.18,SE,135,2.2,4.0,89,0.00,,,0.00,WUHU216HW,2013-02-12 15:50:00,
2013-02-12 08:55:00,33.8,30.9,30.19,SSE,158,4.7,4.7,89,0.00,,,0.00,WUHU216HW,2013-02-12 15:55:00,
2013-02-12 09:00:00,34.4,31.7,30.19,South,180,3.6,4.7,90,0.00,,,0.00,WUHU216HW,2013-02-12 16:00:00,
2013-02-12 09:05:00,34.7,32.0,30.19,ESE,113,1.8,4.7,90,0.00,,,0.00,WUHU216HW,2013-02-12 16:05:00,
2013-02-12 09:10:00,34.9,32.0,30.19,ESE,113,3.4,3.8,89,0.00,,,0.00,WUHU216HW,2013-02-12 16:10:00,
2013-02-12 09:15:00,35.3,32.3,30.20,ENE,68,3.4,4.3,89,0.00,,,0.00,WUHU216HW,2013-02-12 16:15:00,
2013-02-12 09:20:00,35.6,32.9,30.20,East,90,2.2,4.3,90,0.00,,,0.00,WUHU216HW,2013-02-12 16:20:00,
2013-02-12 09:25:00,36.0,33.3,30.20,ESE,113,2.0,4.9,90,0.00,,,0.00,WUHU216HW,2013-02-12 16:25:00,
2013-02-12 09:30:00,36.4,33.7,30.20,ESE,113,0.9,4.9,90,0.00,,,0.00,WUHU216HW,2013-02-12 16:30:00,
2013-02-12 09:35:00,36.9,33.9,30.20,NE,45,3.1,4.0,89,0.00,,,0.00,WUHU216HW,2013-02-12 16:35:00,
2013-02-12 09:40:00,37.1,33.9,30.20,SSE,158,4.9,4.9,88,0.00,,,0.00,WUHU216HW,2013-02-12 16:40:00,
2013-02-12 09:45:00,37.3,34.0,30.20,SSE,158,2.5,4.9,88,0.00,,,0.00,WUHU216HW,2013-02-12 16:45:00,
2013-02-12 09:50:00,37.4,34.2,30.20,SE,135,1.1,4.9,88,0.00,,,0.00,WUHU216HW,2013-02-12 16:50:00,
2013-02-12 09:55:00,37.6,34.7,30.20,South,180,2.7,4.7,89,0.00,,,0.00,WUHU216HW,2013-02-12 16:55:00,
2013-02-12 10:00:00,37.8,34.6,30.20,SSE,158,3.1,3.4,88,0.00,,,0.00,WUHU216HW,2013-02-12 17:00:00,
2013-02-12 10:05:00,37.8,34.6,30.20,SE,135,3.4,3.4,88,0.00,,,0.00,WUHU216HW,2013-02-12 17:05:00,
2013-02-12 10:10:00,38.2,34.6,30.20,SSW,203,1.8,5.1,87,0.00,,,0.00,WUHU216HW,2013-02-12 17:10:00,
2013-02-12 10:15:00,38.3,34.7,30.20,WSW,248,2.5,5.1,87,0.00,,,0.00,WUHU216HW,2013-02-12 17:15:00,
2013-02-12 10:20:00,38.5,34.7,30.20,SSW,203,2.5,3.4,86,0.00,,,0.00,WUHU216HW,2013-02-12 17:20:00,
2013-02-12 10:25:00,38.2,34.0,30.20,SSE,158,2.0,3.4,85,0.00,,,0.00,WUHU216HW,2013-02-12 17:25:00,
2013-02-12 10:30:00,38.2,34.3,30.20,NNW,338,0.0,3.1,86,0.00,,,0.00,WUHU216HW,2013-02-12 17:30:00,
2013-02-12 10:35:00,38.3,34.2,30.21,SW,225,2.9,3.8,85,0.00,,,0.00,WUHU216HW,2013-02-12 17:35:00,
2013-02-12 10:40:00,38.5,34.1,30.20,WSW,248,1.6,4.0,84,0.00,,,0.00,WUHU216HW,2013-02-12 17:40:00,
2013-02-12 10:45:00,38.7,34.3,30.20,WSW,248,2.7,4.9,84,0.00,,,0.00,WUHU216HW,2013-02-12 17:45:00,
2013-02-12 10:50:00,39.2,34.8,30.20,SW,225,2.2,4.9,84,0.00,,,0.00,WUHU216HW,2013-02-12 17:50:00,
2013-02-12 10:55:00,40.0,35.5,30.20,SSE,158,0.9,4.0,84,0.00,,,0.00,WUHU216HW,2013-02-12 17:55:00,
2013-02-12 11:00:00,40.3,35.6,30.20,SW,225,5.8,5.8,83,0.00,,,0.00,WUHU216HW,2013-02-12 18:00:00,
2013-02-12 11:05:00,40.7,35.6,30.20,SSW,203,3.8,5.8,82,0.00,,,0.00,WUHU216HW,2013-02-12 18:05:00,
2013-02-12 11:10:00,41.0,35.9,30.20,South,180,3.6,5.6,82,0.00,,,0.00,WUHU216HW,2013-02-12 18:10:00,
2013-02-12 11:15:00,41.8,36.6,30.21,SSW,203,2.5,4.9,82,0.00,,,0.00,WUHU216HW,2013-02-12 18:15:00,
2013-02-12 11:20:00,42.3,36.8,30.21,ENE,68,0.7,4.7,81,0.00,,,0.00,WUHU216HW,2013-02-12 18:20:00,
2013-02-12 11:25:00,42.7,36.9,30.21,SSE,158,2.5,4.7,80,0.00,,,0.00,WUHU216HW,2013-02-12 18:25:00,
2013-02-12 11:30:00,43.4,37.3,30.21,SE,135,3.4,6.3,79,0.00,,,0.00,WUHU216HW,2013-02-12 18:30:00,
2013-02-12 11:35:00,44.1,38.0,30.21,South,180,2.0,6.3,79,0.00,,,0.00,WUHU216HW,2013-02-12 18:35:00,
2013-02-12 11:40:00,44.6,37.9,30.21,SSW,203,4.3,5.4,77,0.00,,,0.00,WUHU216HW,2013-02-12 18:40:00,
2013-02-12 11:45:00,44.6,37.2,30.20,SSE,158,0.9,5.4,75,0.00,,,0.00,WUHU216HW,2013-02-12 18:45:00,
2013-02-12 11:50:00,44.8,37.0,30.20,SSE,158,1.8,5.4,74,0.00,,,0.00,WUHU216HW,2013-02-12 18:50:00,
2013-02-12 11:55:00,45.2,37.4,30.20,North,0,0.7,5.4,74,0.00,,,0.00,WUHU216HW,2013-02-12 18:55:00,
2013-02-12 12:00:00,45.7,38.3,30.20,SE,135,1.1,5.8,75,0.00,,,0.00,WUHU216HW,2013-02-12 19:00:00,
2013-02-12 12:05:00,46.1,38.3,30.19,West,270,0.9,5.8,74,0.00,,,0.00,WUHU216HW,2013-02-12 19:05:00,
2013-02-12 12:10:00,46.3,37.8,30.19,SSW,203,3.4,6.9,72,0.00,,,0.00,WUHU216HW,2013-02-12 19:10:00,
2013-02-12 12:15:00,46.3,36.3,30.19,WNW,293,3.4,6.9,68,0.00,,,0.00,WUHU216HW,2013-02-12 19:15:00,
2013-02-12 12:20:00,45.9,36.4,30.19,SE,135,2.5,6.9,69,0.00,,,0.00,WUHU216HW,2013-02-12 19:20:00,
2013-02-12 12:25:00,46.1,36.6,30.18,South,180,3.6,5.4,69,0.00,,,0.00,WUHU216HW,2013-02-12 19:25:00,
2013-02-12 12:30:00,46.8,37.6,30.18,SW,225,5.8,6.3,70,0.00,,,0.00,WUHU216HW,2013-02-12 19:30:00,
2013-02-12 12:35:00,47.2,36.7,30.18,South,180,2.5,6.7,67,0.00,,,0.00,WUHU216HW,2013-02-12 19:35:00,
2013-02-12 12:40:00,47.9,37.8,30.17,WSW,248,5.4,6.7,68,0.00,,,0.00,WUHU216HW,2013-02-12 19:40:00,
2013-02-12 12:45:00,47.9,36.3,30.17,WSW,248,4.7,6.9,64,0.00,,,0.00,WUHU216HW,2013-02-12 19:45:00,
2013-02-12 12:50:00,47.5,35.6,30.17,SW,225,3.6,6.9,63,0.00,,,0.00,WUHU216HW,2013-02-12 19:50:00,
2013-02-12 12:55:00,47.5,34.7,30.17,West,270,4.0,6.3,61,0.00,,,0.00,WUHU216HW,2013-02-12 19:55:00,
2013-02-12 13:00:00,47.5,34.7,30.16,West,270,4.5,6.3,61,0.00,,,0.00,WUHU216HW,2013-02-12 20:00:00,
2013-02-12 13:05:00,47.5,33.9,30.16,NW,315,5.4,6.3,59,0.00,,,0.00,WUHU216HW,2013-02-12 20:05:00,
2013-02-12 13:10:00,47.2,33.1,30.16,NNE,23,6.7,7.6,58,0.00,,,0.00,WUHU216HW,2013-02-12 20:10:00,
2013-02-12 13:15:00,47.2,33.1,30.16,West,270,6.7,7.6,58,0.00,,,0.00,WUHU216HW,2013-02-12 20:15:00,
2013-02-12 13:20:00,47.3,31.9,30.15,ENE,68,1.1,7.8,55,0.00,,,0.00,WUHU216HW,2013-02-12 20:20:00,
2013-02-12 13:25:00,47.3,31.9,30.15,NE,45,2.5,7.8,55,0.00,,,0.00,WUHU216HW,2013-02-12 20:25:00,
2013-02-12 13:30:00,47.9,31.5,30.15,NNW,338,6.3,8.1,53,0.00,,,0.00,WUHU216HW,2013-02-12 20:30:00,
2013-02-12 13:35:00,47.7,30.9,30.15,NNW,338,5.4,9.8,52,0.00,,,0.00,WUHU216HW,2013-02-12 20:35:00,
2013-02-12 13:40:00,47.9,31.1,30.14,ENE,68,2.2,9.8,52,0.00,,,0.00,WUHU216HW,2013-02-12 20:40:00,
2013-02-12 13:45:00,48.4,31.1,30.14,NNE,23,2.2,6.9,51,0.00,,,0.00,WUHU216HW,2013-02-12 20:45:00,
2013-02-12 13:50:00,48.6,31.7,30.14,WNW,293,6.0,11.6,52,0.00,,,0.00,WUHU216HW,2013-02-12 20:50:00,
2013-02-12 13:55:00,48.8,32.3,30.15,WNW,293,4.0,11.6,53,0.00,,,0.00,WUHU216HW,2013-02-12 20:55:00,
2013-02-12 14:00:00,48.2,31.9,30.14,West,270,5.8,7.6,53,0.00,,,0.00,WUHU216HW,2013-02-12 21:00:00,
2013-02-12 14:05:00,48.4,32.1,30.14,WSW,248,3.6,11.2,53,0.00,,,0.00,WUHU216HW,2013-02-12 21:05:00,
2013-02-12 14:10:00,49.1,32.7,30.14,North,0,4.5,11.2,53,0.00,,,0.00,WUHU216HW,2013-02-12 21:10:00,
2013-02-12 14:15:00,49.1,33.1,30.14,North,0,3.1,11.9,54,0.00,,,0.00,WUHU216HW,2013-02-12 21:15:00,
2013-02-12 14:20:00,49.3,32.9,30.14,WNW,293,5.8,11.9,53,0.00,,,0.00,WUHU216HW,2013-02-12 21:20:00,
2013-02-12 14:25:00,49.5,33.0,30.14,NW,315,9.2,10.5,53,0.00,,,0.00,WUHU216HW,2013-02-12 21:25:00,
2013-02-12 14:30:00,49.9,32.9,30.13,West,270,6.7,11.4,52,0.00,,,0.00,WUHU216HW,2013-02-12 21:30:00,
2013-02-12 14:35:00,49.9,32.9,30.13,WNW,293,7.8,11.4,52,0.00,,,0.00,WUHU216HW,2013-02-12 21:35:00,
2013-02-12 14:40:00,49.9,32.9,30.13,SW,225,6.5,10.5,52,0.00,,,0.00,WUHU216HW,2013-02-12 21:40:00,
2013-02-12 14:45:00,49.7,33.2,30.13,NW,315,8.5,11.6,53,0.00,,,0.00,WUHU216HW,2013-02-12 21:45:00,
2013-02-12 14:50:00,49.9,33.4,30.13,WNW,293,10.5,12.8,53,0.00,,,0.00,WUHU216HW,2013-02-12 21:50:00,
2013-02-12 14:55:00,50.0,33.1,30.13,NNW,338,4.7,12.8,52,0.00,,,0.00,WUHU216HW,2013-02-12 21:55:00,
2013-02-12 15:00:00,49.7,32.8,30.13,WNW,293,4.3,10.5,52,0.00,,,0.00,WUHU216HW,2013-02-12 22:00:00,
2013-02-12 15:05:00,49.5,33.0,30.13,West,270,7.6,8.5,53,0.00,,,0.00,WUHU216HW,2013-02-12 22:05:00,
2013-02-12 15:10:00,49.9,33.4,30.13,West,270,3.1,9.6,53,0.00,,,0.00,WUHU216HW,2013-02-12 22:10:00,
2013-02-12 15:15:00,50.4,33.5,30.13,West,270,4.9,9.6,52,0.00,,,0.00,WUHU216HW,2013-02-12 22:15:00,
2013-02-12 15:20:00,50.4,33.0,30.13,WNW,293,5.8,10.3,51,0.00,,,0.00,WUHU216HW,2013-02-12 22:20:00,
2013-02-12 15:25:00,50.4,33.5,30.12,West,270,3.4,10.3,52,0.00,,,0.00,WUHU216HW,2013-02-12 22:25:00,
2013-02-12 15:30:00,50.6,33.1,30.12,NW,315,6.0,10.3,51,0.00,,,0.00,WUHU216HW,2013-02-12 22:30:00,
2013-02-12 15:35:00,50.4,33.0,30.12,West,270,3.4,8.7,51,0.00,,,0.00,WUHU216HW,2013-02-12 22:35:00,
2013-02-12 15:40:00,50.2,33.3,30.12,WNW,293,4.0,7.6,52,0.00,,,0.00,WUHU216HW,2013-02-12 22:40:00,
2013-02-12 15:45:00,50.6,32.7,30.12,WSW,248,6.0,8.5,50,0.00,,,0.00,WUHU216HW,2013-02-12 22:45:00,
2013-02-12 15:50:00,50.9,32.5,30.12,WNW,293,12.8,12.8,49,0.00,,,0.00,WUHU216HW,2013-02-12 22:50:00,
2013-02-12 15:55:00,51.1,32.7,30.12,NW,315,7.4,12.8,49,0.00,,,0.00,WUHU216HW,2013-02-12 22:55:00,
2013-02-12 16:00:00,50.9,32.5,30.12,West,270,7.8,12.8,49,0.00,,,0.00,WUHU216HW,2013-02-12 23:00:00,
2013-02-12 16:05:00,50.8,32.9,30.12,West,270,8.7,10.7,50,0.00,,,0.00,WUHU216HW,2013-02-12 23:05:00,
2013-02-12 16:10:00,50.9,32.5,30.12,West,270,5.8,11.9,49,0.00,,,0.00,WUHU216HW,2013-02-12 23:10:00,
2013-02-12 16:15:00,51.7,33.7,30.12,NNW,338,7.2,11.9,50,0.00,,,0.00,WUHU216HW,2013-02-12 23:15:00,
2013-02-12 16:20:00,52.0,32.9,30.12,West,270,8.1,9.2,48,0.00,,,0.00,WUHU216HW,2013-02-12 23:20:00,
2013-02-12 16:25:00,51.8,32.1,30.12,NW,315,3.8,10.7,47,0.00,,,0.00,WUHU216HW,2013-02-12 23:25:00,
2013-02-12 16:30:00,51.7,31.4,30.12,West,270,7.6,11.4,46,0.00,,,0.00,WUHU216HW,2013-02-12 23:30:00,
2013-02-12 16:35:00,51.5,31.9,30.12,WSW,248,8.1,11.4,47,0.00,,,0.00,WUHU216HW,2013-02-12 23:35:00,
2013-02-12 16:40:00,51.5,31.3,30.12,West,270,10.5,10.5,46,0.00,,,0.00,WUHU216HW,2013-02-12 23:40:00,
2013-02-12 16:45:00,51.5,31.9,30.12,West,270,5.4,10.5,47,0.00,,,0.00,WUHU216HW,2013-02-12 23:45:00,
2013-02-12 16:50:00,51.5,31.9,30.11,NW,315,5.4,9.4,47,0.00,,,0.00,WUHU216HW,2013-02-12 23:50:00,
2013-02-12 16:55:00,51.5,31.9,30.11,WSW,248,5.8,11.4,47,0.00,,,0.00,WUHU216HW,2013-02-12 23:55:00,
2013-02-12 17:00:00,51.3,31.2,30.11,West,270,6.3,11.9,46,0.00,,,0.00,WUHU216HW,2013-02-13 00:00:00,
2013-02-12 17:05:00,50.9,30.2,30.11,WNW,293,4.7,11.9,45,0.00,,,0.00,WUHU216HW,2013-02-13 00:05:00,
2013-02-12 17:10:00,50.8,30.6,30.11,WNW,293,7.4,10.5,46,0.00,,,0.00,WUHU216HW,2013-02-13 00:10:00,
2013-02-12 17:15:00,50.8,30.6,30.11,WSW,248,8.3,10.5,46,0.00,,,0.00,WUHU216HW,2013-02-13 00:15:00,
2013-02-12 17:20:00,50.4,30.3,30.11,West,270,8.5,10.5,46,0.00,,,0.00,WUHU216HW,2013-02-13 00:20:00,
2013-02-12 17:25:00,50.0,30.0,30.11,West,270,8.7,10.5,46,0.00,,,0.00,WUHU216HW,2013-02-13 00:25:00,
2013-02-12 17:30:00,49.7,29.6,30.12,West,270,8.1,11.6,46,0.00,,,0.00,WUHU216HW,2013-02-13 00:30:00,
2013-02-12 17:35:00,49.3,29.9,30.12,West,270,7.8,11.6,47,0.00,,,0.00,WUHU216HW,2013-02-13 00:35:00,
2013-02-12 17:40:00,49.3,29.9,30.12,WNW,293,7.8,11.4,47,0.00,,,0.00,WUHU216HW,2013-02-13 00:40:00,
2013-02-12 17:45:00,49.1,29.7,30.12,West,270,7.8,11.4,47,0.00,,,0.00,WUHU216HW,2013-02-13 00:45:00,
2013-02-12 17:50:00,48.6,29.2,30.12,WNW,293,8.1,11.6,47,0.00,,,0.00,WUHU216HW,2013-02-13 00:50:00,
2013-02-12 17:55:00,48.1,28.6,30.12,WSW,248,8.9,11.6,47,0.00,,,0.00,WUHU216HW,2013-02-13 00:55:00,
2013-02-12 18:00:00,47.7,28.4,30.13,NW,315,9.2,11.2,47,0.00,,,0.00,WUHU216HW,2013-02-13 01:00:00,
2013-02-12 18:05:00,47.2,28.4,30.14,WNW,293,10.1,11.2,48,0.00,,,0.00,WUHU216HW,2013-02-13 01:05:00,
2013-02-12 18:10:00,46.8,28.6,30.14,NW,315,6.5,10.1,49,0.00,,,0.00,WUHU216HW,2013-02-13 01:10:00,
2013-02-12 18:15:00,46.4,28.3,30.14,NW,315,6.7,10.1,49,0.00,,,0.00,WUHU216HW,2013-02-13 01:15:00,
2013-02-12 18:20:00,46.3,28.1,30.14,West,270,4.9,9.2,49,0.00,,,0.00,WUHU216HW,2013-02-13 01:20:00,
2013-02-12 18:25:00,45.9,27.8,30.14,NW,315,5.4,8.5,49,0.00,,,0.00,WUHU216HW,2013-02-13 01:25:00,
2013-02-12 18:30:00,45.7,27.6,30.14,NNW,338,4.3,8.5,49,0.00,,,0.00,WUHU216HW,2013-02-13 01:30:00,
2013-02-12 18:35:00,45.5,28.0,30.14,NW,315,4.5,6.9,50,0.00,,,0.00,WUHU216HW,2013-02-13 01:35:00,
2013-02-12 18:40:00,45.2,27.6,30.14,NNW,338,4.5,7.8,50,0.00,,,0.00,WUHU216HW,2013-02-13 01:40:00,
2013-02-12 18:45:00,45.0,28.0,30.14,NW,315,4.0,7.8,51,0.00,,,0.00,WUHU216HW,2013-02-13 01:45:00,
2013-02-12 18:50:00,44.8,27.8,30.14,WNW,293,5.4,5.4,51,0.00,,,0.00,WUHU216HW,2013-02-13 01:50:00,
2013-02-12 18:55:00,44.6,27.6,30.14,North,0,4.7,6.7,51,0.00,,,0.00,WUHU216HW,2013-02-13 01:55:00,
2013-02-12 19:00:00,44.5,27.5,30.14,NW,315,6.0,6.9,51,0.00,,,0.00,WUHU216HW,2013-02-13 02:00:00,
2013-02-12 19:05:00,44.3,27.7,30.14,WNW,293,8.7,11.2,52,0.00,,,0.00,WUHU216HW,2013-02-13 02:05:00,
2013-02-12 19:10:00,44.5,27.9,30.14,WNW,293,3.4,11.2,52,0.00,,,0.00,WUHU216HW,2013-02-13 02:10:00,
2013-02-12 19:15:00,44.3,27.7,30.14,North,0,4.7,8.7,52,0.00,,,0.00,WUHU216HW,2013-02-13 02:15:00,
2013-02-12 19:20:00,44.3,27.7,30.14,NW,315,6.3,8.9,52,0.00,,,0.00,WUHU216HW,2013-02-13 02:20:00,
2013-02-12 19:25:00,44.3,28.2,30.14,NW,315,7.6,8.9,53,0.00,,,0.00,WUHU216HW,2013-02-13 02:25:00,
2013-02-12 19:30:00,44.5,27.9,30.14,NNW,338,6.3,10.5,52,0.00,,,0.00,WUHU216HW,2013-02-13 02:30:00,
2013-02-12 19:35:00,44.6,28.1,30.14,North,0,3.1,10.5,52,0.00,,,0.00,WUHU216HW,2013-02-13 02:35:00,
2013-02-12 19:40:00,44.6,28.1,30.14,NNE,23,5.4,8.7,52,0.00,,,0.00,WUHU216HW,2013-02-13 02:40:00,
2013-02-12 19:45:00,44.5,27.9,30.14,North,0,5.8,8.5,52,0.00,,,0.00,WUHU216HW,2013-02-13 02:45:00,
2013-02-12 19:50:00,44.5,27.9,30.14,North,0,7.8,11.6,52,0.00,,,0.00,WUHU216HW,2013-02-13 02:50:00,
2013-02-12 19:55:00,44.5,27.9,30.14,NNE,23,10.5,11.6,52,0.00,,,0.00,WUHU216HW,2013-02-13 02:55:00,
2013-02-12 20:00:00,44.5,27.9,30.14,North,0,11.9,11.9,52,0.00,,,0.00,WUHU216HW,2013-02-13 03:00:00,
2013-02-12 20:05:00,44.5,27.9,30.14,NNE,23,10.1,12.8,52,0.00,,,0.00,WUHU216HW,2013-02-13 03:05:00,
2013-02-12 20:10:00,44.6,27.6,30.13,NE,45,7.6,15.9,51,0.00,,,0.00,WUHU216HW,2013-02-13 03:10:00,
2013-02-12 20:15:00,44.6,27.6,30.13,NNE,23,10.5,15.9,51,0.00,,,0.00,WUHU216HW,2013-02-13 03:15:00,
2013-02-12 20:20:00,44.5,27.5,30.13,NNE,23,6.9,13.6,51,0.00,,,0.00,WUHU216HW,2013-02-13 03:20:00,
2013-02-12 20:25:00,44.5,27.5,30.14,NNE,23,12.1,15.9,51,0.00,,,0.00,WUHU216HW,2013-02-13 03:25:00,
2013-02-12 20:30:00,44.5,27.5,30.14,NNE,23,15.4,17.4,51,0.00,,,0.00,WUHU216HW,2013-02-13 03:30:00,
2013-02-12 20:35:00,44.5,27.5,30.14,ENE,68,10.7,17.4,51,0.00,,,0.00,WUHU216HW,2013-02-13 03:35:00,
2013-02-12 20:40:00,44.5,27.0,30.13,NNE,23,11.6,16.1,50,0.00,,,0.00,WUHU216HW,2013-02-13 03:40:00,
2013-02-12 20:45:00,44.3,26.8,30.13,NNE,23,14.3,16.1,50,0.00,,,0.00,WUHU216HW,2013-02-13 03:45:00,
2013-02-12 20:50:00,44.5,27.0,30.13,North,0,12.5,15.0,50,0.00,,,0.00,WUHU216HW,2013-02-13 03:50:00,
2013-02-12 20:55:00,44.3,26.8,30.14,North,0,6.9,15.0,50,0.00,,,0.00,WUHU216HW,2013-02-13 03:55:00,
2013-02-12 21:00:00,44.3,26.8,30.14,NE,45,10.3,13.4,50,0.00,,,0.00,WUHU216HW,2013-02-13 04:00:00,
2013-02-12 21:05:00,44.3,26.8,30.14,NNE,23,8.1,14.3,50,0.00,,,0.00,WUHU216HW,2013-02-13 04:05:00,
2013-02-12 21:10:00,44.3,26.8,30.14,North,0,10.7,15.0,50,0.00,,,0.00,WUHU216HW,2013-02-13 04:10:00,
2013-02-12 21:15:00,44.3,26.8,30.14,NNE,23,5.8,15.0,50,0.00,,,0.00,WUHU216HW,2013-02-13 04:15:00,
2013-02-12 21:20:00,44.3,26.8,30.14,NE,45,9.2,12.5,50,0.00,,,0.00,WUHU216HW,2013-02-13 04:20:00,
2013-02-12 21:25:00,44.3,26.8,30.14,NNE,23,9.2,12.1,50,0.00,,,0.00,WUHU216HW,2013-02-13 04:25:00,
2013-02-12 21:30:00,44.1,26.7,30.14,NNE,23,7.2,11.0,50,0.00,,,0.00,WUHU216HW,2013-02-13 04:30:00,
2013-02-12 21:35:00,43.9,26.6,30.14,NNE,23,2.9,9.2,50,0.00,,,0.00,WUHU216HW,2013-02-13 04:35:00,
2013-02-12 21:40:00,43.9,26.6,30.15,North,0,3.1,7.2,50,0.00,,,0.00,WUHU216HW,2013-02-13 04:40:00,
2013-02-12 21:45:00,43.7,26.4,30.15,ENE,68,2.2,6.3,50,0.00,,,0.00,WUHU216HW,2013-02-13 04:45:00,
2013-02-12 21:50:00,43.4,26.0,30.16,ENE,68,3.6,5.6,50,0.00,,,0.00,WUHU216HW,2013-02-13 04:50:00,
2013-02-12 21:55:00,43.0,26.2,30.16,SW,225,0.2,4.0,51,0.00,,,0.00,WUHU216HW,2013-02-13 04:55:00,
2013-02-12 22:00:00,42.7,26.3,30.16,SSW,203,2.0,4.0,52,0.00,,,0.00,WUHU216HW,2013-02-13 05:00:00,
2013-02-12 22:05:00,42.1,25.8,30.16,SE,135,1.1,2.7,52,0.00,,,0.00,WUHU216HW,2013-02-13 05:05:00,
2013-02-12 22:10:00,41.6,25.7,30.16,SE,135,2.2,2.9,53,0.00,,,0.00,WUHU216HW,2013-02-13 05:10:00,
2013-02-12 22:15:00,41.0,25.6,30.16,SSE,158,2.2,2.9,54,0.00,,,0.00,WUHU216HW,2013-02-13 05:15:00,
2013-02-12 22:20:00,40.7,25.7,30.16,SSE,158,3.6,3.6,55,0.00,,,0.00,WUHU216HW,2013-02-13 05:20:00,
2013-02-12 22:25:00,40.1,25.6,30.16,SE,135,3.6,3.6,56,0.00,,,0.00,WUHU216HW,2013-02-13 05:25:00,
2013-02-12 22:30:00,39.8,25.7,30.16,ESE,113,2.2,4.0,57,0.00,,,0.00,WUHU216HW,2013-02-13 05:30:00,
2013-02-12 22:35:00,39.4,25.7,30.16,ENE,68,4.0,4.7,58,0.00,,,0.00,WUHU216HW,2013-02-13 05:35:00,
2013-02-12 22:40:00,39.2,26.0,30.16,East,90,3.4,4.7,59,0.00,,,0.00,WUHU216HW,2013-02-13 05:40:00,
2013-02-12 22:45:00,39.2,26.0,30.16,ESE,113,2.2,4.0,59,0.00,,,0.00,WUHU216HW,2013-02-13 05:45:00,
2013-02-12 22:50:00,39.2,26.5,30.15,East,90,3.6,5.4,60,0.00,,,0.00,WUHU216HW,2013-02-13 05:50:00,
2013-02-12 22:55:00,39.4,26.6,30.15,SSE,158,3.1,5.4,60,0.00,,,0.00,WUHU216HW,2013-02-13 05:55:00,
2013-02-12 23:00:00,39.6,26.8,30.15,ENE,68,3.4,5.4,60,0.00,,,0.00,WUHU216HW,2013-02-13 06:00:00,
2013-02-12 23:05:00,39.4,26.6,30.15,East,90,3.1,5.4,60,0.00,,,0.00,WUHU216HW,2013-02-13 06:05:00,
2013-02-12 23:10:00,39.2,26.5,30.14,NE,45,1.1,3.6,60,0.00,,,0.00,WUHU216HW,2013-02-13 06:10:00,
2013-02-12 23:15:00,39.1,26.6,30.14,SE,135,0.9,3.6,61,0.00,,,0.00,WUHU216HW,2013-02-13 06:15:00,
2013-02-12 23:20:00,38.9,26.6,30.14,East,90,2.2,3.6,61,0.00,,,0.00,WUHU216HW,2013-02-13 06:20:00,
2013-02-12 23:25:00,38.9,26.6,30.14,ESE,113,2.5,3.6,61,0.00,,,0.00,WUHU216HW,2013-02-13 06:25:00,
2013-02-12 23:30:00,38.5,26.2,30.14,East,90,1.1,3.1,61,0.00,,,0.00,WUHU216HW,2013-02-13 06:30:00,
2013-02-12 23:35:00,38.3,26.4,30.14,East,90,1.8,3.1,62,0.00,,,0.00,WUHU216HW,2013-02-13 06:35:00,
2013-02-12 23:40:00,38.2,26.3,30.14,ENE,68,2.9,2.9,62,0.00,,,0.00,WUHU216HW,2013-02-13 06:40:00,
2013-02-12 23:45:00,38.0,26.1,30.14,East,90,2.0,2.9,62,0.00,,,0.00,WUHU216HW,2013-02-13 06:45:00,
2013-02-12 23:50:00,37.8,26.3,30.14,East,90,0.9,3.1,63,0.00,,,0.00,WUHU216HW,2013-02-13 06:50:00,
2013-02-12 23:55:00,37.6,25.7,30.14,ESE,113,1.1,3.1,62,0.00,,,0.00,WUHU216HW,2013-02-13 06:55:00,